createdAt,value
2022-08-22T00:02:33.777Z,98555.63
2022-08-22T00:02:58.815Z,98629.63
2022-08-22T00:03:01.582Z,98679.53
2022-08-22T00:05:23.343Z,98566.00
2022-08-22T00:08:11.602Z,98565.06
2022-08-22T00:11:08.863Z,98559.84
2022-08-22T00:13:54.830Z,98558.06
2022-08-22T00:16:57.954Z,98553.09
2022-08-22T00:20:06.436Z,98559.91
2022-08-22T00:22:47.749Z,98550.66
2022-08-22T00:25:36.664Z,98551.44
2022-08-22T00:28:15.735Z,98563.38
2022-08-22T00:31:01.612Z,98553.88
2022-08-22T00:33:41.891Z,98557.56
2022-08-22T00:36:31.448Z,98551.59
2022-08-22T00:39:25.070Z,98558.34
2022-08-22T00:42:32.241Z,98564.56
2022-08-22T00:45:49.281Z,98567.28
2022-08-22T00:48:40.348Z,98566.41
2022-08-22T00:51:17.424Z,98563.13
2022-08-22T00:53:51.385Z,98572.16
2022-08-22T00:56:31.037Z,98567.03
2022-08-22T00:59:22.731Z,98560.09
2022-08-22T01:02:29.393Z,98557.03
2022-08-22T01:05:04.450Z,98568.09
2022-08-22T01:07:52.504Z,98566.41
2022-08-22T01:10:42.256Z,98563.88
2022-08-22T01:13:32.341Z,98573.16
2022-08-22T01:16:08.520Z,98562.09
2022-08-22T01:18:43.394Z,98566.41
2022-08-22T01:21:25.934Z,98574.94
2022-08-22T01:31:28.972Z,98555.63
2022-08-22T01:37:18.877Z,98561.28
2022-08-22T01:40:31.174Z,98567.50
2022-08-22T01:46:48.738Z,98549.31
2022-08-22T02:01:02.451Z,98536.84
2022-08-22T02:03:34.430Z,98534.75
2022-08-22T02:06:17.543Z,98533.63
2022-08-22T02:08:51.057Z,98536.25
2022-08-22T02:11:36.625Z,98538.28
2022-08-22T02:14:06.680Z,98533.31
2022-08-22T02:16:42.300Z,98549.31
2022-08-22T02:19:16.532Z,98531.78
2022-08-22T02:26:17.150Z,98537.34
2022-08-22T02:29:02.090Z,98526.31
2022-08-22T02:31:29.194Z,98533.63
2022-08-22T02:33:57.690Z,98519.00
2022-08-22T02:36:30.879Z,98519.69
2022-08-22T02:39:32.474Z,98525.06
2022-08-22T02:42:11.963Z,98517.31
2022-08-22T02:44:41.362Z,98515.44
2022-08-22T02:47:52.965Z,98508.72
2022-08-22T02:50:54.828Z,98531.03
2022-08-22T02:53:29.817Z,98513.84
2022-08-22T02:56:17.989Z,98510.22
2022-08-22T03:13:20.915Z,98509.56
2022-08-22T03:16:01.497Z,98501.16
2022-08-22T03:18:45.635Z,98504.34
2022-08-22T03:21:22.198Z,98503.25
2022-08-22T03:23:55.229Z,98502.47
2022-08-22T03:26:41.398Z,98496.53
2022-08-22T03:32:55.781Z,98507.78
2022-08-22T04:05:07.007Z,98507.13
2022-08-22T04:07:52.168Z,98507.88
2022-08-22T04:28:12.862Z,98491.94
2022-08-22T04:34:18.934Z,98508.19
2022-08-22T04:36:58.231Z,98498.53
2022-08-22T04:39:44.397Z,98495.16
2022-08-22T04:42:52.750Z,98506.28
2022-08-22T04:45:31.747Z,98500.38
2022-08-22T04:48:26.236Z,98512.34
2022-08-22T04:51:24.025Z,98510.03
2022-08-22T05:00:05.949Z,98504.69
2022-08-22T05:02:34.662Z,98508.13
2022-08-22T05:08:20.212Z,98506.28
2022-08-22T05:13:49.058Z,98508.88
2022-08-22T05:16:43.822Z,98505.50
2022-08-22T05:19:28.431Z,98513.25
2022-08-22T05:28:14.892Z,98527.84
2022-08-22T05:30:52.900Z,98527.25
2022-08-22T05:33:27.728Z,98535.75
2022-08-22T05:36:03.497Z,98533.16
2022-08-22T05:38:33.497Z,98542.41
2022-08-22T05:41:12.192Z,98534.81
2022-08-22T05:43:44.345Z,98545.78
2022-08-22T05:46:48.489Z,98541.38
2022-08-22T05:49:54.691Z,98543.75
2022-08-22T05:52:42.950Z,98541.88
2022-08-22T05:55:33.370Z,98537.53
2022-08-22T05:58:19.582Z,98548.47
2022-08-22T06:00:51.769Z,98539.03
2022-08-22T06:03:31.357Z,98543.00
2022-08-22T06:06:01.239Z,98536.06
2022-08-22T06:08:42.224Z,98535.25
2022-08-22T06:11:23.822Z,98544.69
2022-08-22T06:14:13.012Z,98543.00
2022-08-22T06:16:55.642Z,98542.06
2022-08-22T06:19:45.415Z,98534.31
2022-08-22T06:22:20.265Z,98550.31
2022-08-22T06:24:56.393Z,98552.00
2022-08-22T06:27:32.507Z,98546.94
2022-08-22T06:30:09.251Z,98543.69
2022-08-22T06:32:59.083Z,98543.91
2022-08-22T06:35:57.353Z,98552.94
2022-08-22T07:10:10.478Z,98559.28
2022-08-22T07:12:39.309Z,98557.31
2022-08-22T07:15:32.660Z,98557.81
2022-08-22T07:18:01.756Z,98556.16
2022-08-22T07:20:32.314Z,98559.44
2022-08-22T07:23:02.315Z,98557.66
2022-08-22T07:25:29.528Z,98553.38
2022-08-22T07:33:56.798Z,98574.25
2022-08-22T07:36:31.486Z,98579.22
2022-08-22T07:39:05.427Z,98573.63
2022-08-22T07:42:13.792Z,98561.97
2022-08-22T07:44:53.271Z,98578.75
2022-08-22T07:47:26.263Z,98560.00
2022-08-22T07:49:53.725Z,98572.06
2022-08-22T07:52:21.008Z,98569.03
2022-08-22T07:58:21.608Z,98574.00
2022-08-22T08:04:21.727Z,98579.91
2022-08-22T08:06:51.039Z,98585.81
2022-08-22T08:09:18.835Z,98590.06
2022-08-22T08:15:25.897Z,98590.78
2022-08-22T08:26:09.778Z,98569.03
2022-08-22T08:28:44.372Z,98568.59
2022-08-22T08:31:16.845Z,98586.16
2022-08-22T08:50:24.545Z,98590.31
2022-08-22T09:16:51.919Z,98594.69
2022-08-22T09:19:52.164Z,98601.50
2022-08-22T09:28:05.230Z,98587.59
2022-08-22T09:29:55.438Z,98598.47
2022-08-22T09:33:06.523Z,98587.09
2022-08-22T09:36:26.808Z,98593.63
2022-08-22T09:39:05.914Z,98594.22
2022-08-22T09:41:57.454Z,98597.59
2022-08-22T09:44:55.530Z,98590.75
2022-08-22T09:47:39.261Z,98608.47
2022-08-22T09:51:04.870Z,98589.59
2022-08-22T09:55:16.243Z,98599.09
2022-08-22T09:57:47.003Z,98590.91
2022-08-22T10:00:25.750Z,98587.22
2022-08-22T10:02:59.255Z,98594.88
2022-08-22T10:05:40.729Z,98577.75
2022-08-22T10:08:19.674Z,98580.19
2022-08-22T10:11:11.590Z,98584.81
2022-08-22T10:14:00.739Z,98578.34
2022-08-22T10:17:21.742Z,98590.88
2022-08-22T10:19:58.567Z,98579.94
2022-08-22T10:22:55.474Z,98598.38
2022-08-22T10:25:48.389Z,98582.22
2022-08-22T10:28:17.983Z,98596.16
2022-08-22T10:31:07.618Z,98599.19
2022-08-22T10:34:20.479Z,98578.97
2022-08-22T10:37:24.361Z,98591.94
2022-08-22T10:40:08.117Z,98582.41
2022-08-22T10:42:59.199Z,98581.88
2022-08-22T10:45:36.269Z,98594.97
2022-08-22T10:48:10.420Z,98590.19
2022-08-22T10:50:42.983Z,98589.84
2022-08-22T10:53:39.024Z,98571.06
2022-08-22T10:56:27.591Z,98588.63
2022-08-22T10:59:22.757Z,98579.81
2022-08-22T11:02:13.090Z,98575.63
2022-08-22T11:05:26.359Z,98574.16
2022-08-22T11:08:35.327Z,98573.97
2022-08-22T11:11:16.855Z,98576.94
2022-08-22T11:14:10.803Z,98585.56
2022-08-22T11:16:55.400Z,98583.41
2022-08-22T11:19:32.085Z,98592.56
2022-08-22T11:22:36.617Z,98593.88
2022-08-22T11:25:38.579Z,98588.34
2022-08-22T11:28:30.024Z,98584.59
2022-08-22T11:36:08.162Z,98585.78
2022-08-22T11:38:40.027Z,98564.81
2022-08-22T11:41:19.188Z,98579.16
2022-08-22T11:44:36.533Z,98569.06
2022-08-22T11:47:18.461Z,98564.94
2022-08-22T11:49:51.619Z,98577.81
2022-08-22T11:52:43.666Z,98559.56
2022-08-22T11:55:22.488Z,98562.50
2022-08-22T11:57:56.524Z,98545.53
2022-08-22T12:00:45.311Z,98560.25
2022-08-22T12:03:18.305Z,98560.47
2022-08-22T12:06:19.085Z,98554.81
2022-08-22T12:22:07.159Z,98548.78
2022-08-22T12:25:11.781Z,98548.13
2022-08-22T12:28:03.635Z,98543.72
2022-08-22T12:36:17.939Z,98550.41
2022-08-22T12:40:52.023Z,98543.34
2022-08-22T12:43:39.948Z,98541.38
2022-08-22T12:46:30.197Z,98539.03
2022-08-22T12:49:31.680Z,98540.38
2022-08-22T12:52:31.182Z,98539.06
2022-08-22T12:55:52.871Z,98538.97
2022-08-22T12:58:57.028Z,98537.81
2022-08-22T13:01:34.176Z,98543.16
2022-08-22T13:04:33.392Z,98526.16
2022-08-22T13:07:37.236Z,98538.91
2022-08-22T13:10:32.354Z,98540.16
2022-08-22T13:13:56.767Z,98526.41
2022-08-22T13:16:49.138Z,98531.19
2022-08-22T13:19:25.593Z,98520.34
2022-08-22T13:22:20.442Z,98520.84
2022-08-22T13:25:04.867Z,98519.47
2022-08-22T13:27:51.394Z,98529.22
2022-08-22T13:30:43.751Z,98513.63
2022-08-22T13:33:48.241Z,98517.00
2022-08-22T13:36:22.618Z,98519.78
2022-08-22T13:39:27.736Z,98540.97
2022-08-22T13:42:14.535Z,98525.19
2022-08-22T13:47:40.546Z,98509.78
2022-08-22T13:50:19.560Z,98513.72
2022-08-22T13:52:55.102Z,98531.38
2022-08-22T13:55:31.935Z,98525.00
2022-08-22T13:58:13.457Z,98525.75
2022-08-22T14:00:58.913Z,98537.13
2022-08-22T14:03:40.116Z,98535.94
2022-08-22T14:06:44.078Z,98554.00
2022-08-22T14:09:41.601Z,98554.00
2022-08-22T14:12:22.206Z,98548.63
2022-08-22T14:15:03.119Z,98533.91
2022-08-22T14:17:42.808Z,98539.06
2022-08-22T14:20:32.463Z,98542.88
2022-08-22T14:23:26.924Z,98528.84
2022-08-22T14:25:57.181Z,98522.25
2022-08-22T14:28:34.019Z,98526.44
2022-08-22T14:31:13.496Z,98536.53
2022-08-22T14:34:12.446Z,98519.13
2022-08-22T14:36:48.861Z,98526.91
2022-08-22T14:39:27.345Z,98530.75
2022-08-22T14:42:12.073Z,98539.63
2022-08-22T14:44:54.824Z,98556.13
2022-08-22T14:47:54.588Z,98554.19
2022-08-22T14:50:45.964Z,98569.34
2022-08-22T14:59:50.165Z,98568.16
2022-08-22T15:02:30.261Z,98557.59
2022-08-22T15:05:06.157Z,98571.47
2022-08-22T15:07:38.110Z,98560.78
2022-08-22T15:10:33.195Z,98572.75
2022-08-22T15:13:03.913Z,98559.03
2022-08-22T15:15:52.824Z,98564.78
2022-08-22T15:18:30.141Z,98557.09
2022-08-22T15:21:29.566Z,98563.69
2022-08-22T15:24:13.363Z,98539.31
2022-08-22T15:27:15.581Z,98553.44
2022-08-22T15:30:22.887Z,98562.47
2022-08-22T15:33:14.298Z,98573.00
2022-08-22T15:35:44.500Z,98571.44
2022-08-22T15:38:54.143Z,98566.84
2022-08-22T15:41:41.115Z,98576.41
2022-08-22T15:44:32.094Z,98563.81
2022-08-22T15:47:10.819Z,98564.66
2022-08-22T15:49:52.632Z,98560.88
2022-08-22T15:52:27.961Z,98558.38
2022-08-22T15:54:58.639Z,98565.31
2022-08-22T15:57:42.006Z,98560.88
2022-08-22T16:00:33.983Z,98563.31
2022-08-22T16:03:23.599Z,98574.13
2022-08-22T16:05:55.584Z,98557.13
2022-08-22T16:08:40.351Z,98565.94
2022-08-22T16:11:16.988Z,98556.19
2022-08-22T16:14:41.992Z,98564.28
2022-08-22T16:18:22.636Z,98582.91
2022-08-22T16:21:02.469Z,98561.38
2022-08-22T16:30:00.119Z,98564.53
2022-08-22T16:32:35.229Z,98561.56
2022-08-22T16:35:02.447Z,98572.72
2022-08-22T16:37:50.130Z,98574.28
2022-08-22T16:40:25.780Z,98575.78
2022-08-22T16:43:16.093Z,98578.72
2022-08-22T16:45:48.812Z,98587.56
2022-08-22T16:48:45.499Z,98582.41
2022-08-22T16:51:19.921Z,98586.69
2022-08-22T16:54:09.806Z,98584.94
2022-08-22T16:56:57.754Z,98591.09
2022-08-22T16:59:52.054Z,98589.63
2022-08-22T17:02:38.244Z,98574.50
2022-08-22T17:08:50.144Z,98599.81
2022-08-22T17:16:52.114Z,98591.78
2022-08-22T17:19:56.401Z,98577.63
2022-08-22T17:23:44.884Z,98602.44
2022-08-22T17:26:16.955Z,98609.28
2022-08-22T17:29:08.080Z,98608.06
2022-08-22T17:32:24.045Z,98591.56
2022-08-22T17:35:17.038Z,98579.16
2022-08-22T17:37:59.435Z,98584.31
2022-08-22T17:40:38.585Z,98588.91
2022-08-22T17:43:49.034Z,98617.38
2022-08-22T17:46:58.331Z,98610.84
2022-08-22T17:49:57.914Z,98609.56
2022-08-22T17:52:46.368Z,98592.25
2022-08-22T17:59:50.935Z,98604.41
2022-08-22T18:50:58.028Z,98642.47
2022-08-22T18:53:53.545Z,98625.97
2022-08-22T18:56:40.257Z,98651.50
2022-08-22T19:00:08.171Z,98643.91
2022-08-22T19:02:55.718Z,98632.13
2022-08-22T19:22:19.490Z,98709.16
2022-08-22T19:25:08.877Z,98698.03
2022-08-22T19:27:41.828Z,98693.44
2022-08-22T19:30:35.231Z,98660.28
2022-08-22T19:33:56.048Z,98670.25
2022-08-22T19:36:42.978Z,98658.53
2022-08-22T19:39:11.578Z,98660.13
2022-08-22T19:41:59.974Z,98665.53
2022-08-22T19:44:40.381Z,98680.91
2022-08-22T19:47:21.895Z,98673.41
2022-08-22T19:50:15.700Z,98696.63
2022-08-22T19:53:14.793Z,98692.69
2022-08-22T19:56:03.932Z,98684.25
2022-08-22T19:58:49.221Z,98688.28
2022-08-22T20:01:29.589Z,98690.25
2022-08-22T20:04:11.331Z,98697.25
2022-08-22T20:06:44.296Z,98693.72
2022-08-22T20:09:58.315Z,98672.28
2022-08-22T20:12:47.036Z,98684.16
2022-08-22T20:15:20.069Z,98696.25
2022-08-22T20:18:11.557Z,98680.91
2022-08-22T20:20:38.619Z,98698.69
2022-08-22T20:23:15.319Z,98690.44
2022-08-22T20:25:51.942Z,98687.91
2022-08-22T20:28:32.555Z,98703.34
2022-08-22T20:31:11.667Z,98691.72
2022-08-22T20:33:50.830Z,98689.19
2022-08-22T20:36:27.633Z,98694.44
2022-08-22T20:39:06.762Z,98686.00
2022-08-22T20:41:43.623Z,98691.72
2022-08-22T20:44:35.484Z,98682.53
2022-08-22T20:47:12.830Z,98676.53
2022-08-22T20:50:02.045Z,98672.50
2022-08-22T20:56:25.189Z,98666.78
2022-08-22T21:05:41.763Z,98648.75
2022-08-22T21:22:34.508Z,98662.38
2022-08-22T21:39:33.612Z,98648.72
2022-08-22T21:49:28.024Z,98640.38
2022-08-22T21:52:04.837Z,98645.44
2022-08-22T21:54:43.462Z,98641.81
2022-08-22T21:57:21.556Z,98639.81
2022-08-22T22:00:00.066Z,98645.91
2022-08-22T22:02:37.624Z,98649.13
2022-08-22T22:05:10.067Z,98638.16
2022-08-22T22:07:43.194Z,98638.34
2022-08-22T22:10:12.621Z,98636.38
2022-08-22T22:12:43.583Z,98628.06
2022-08-22T22:15:15.278Z,98651.81
2022-08-22T22:17:44.514Z,98642.81
2022-08-22T22:20:15.643Z,98642.72
2022-08-22T22:22:43.300Z,98646.78
2022-08-22T22:25:40.156Z,98632.53
2022-08-22T22:28:07.182Z,98643.47
2022-08-22T22:30:37.080Z,98626.56
2022-08-22T22:33:04.628Z,98633.66
2022-08-22T22:35:32.137Z,98644.44
2022-08-22T22:37:59.565Z,98636.25
2022-08-22T22:40:27.869Z,98643.94
2022-08-22T22:42:56.050Z,98651.03
2022-08-22T22:45:25.961Z,98639.06
2022-08-22T22:47:55.466Z,98643.34
2022-08-22T22:50:23.358Z,98624.56
2022-08-22T22:52:54.065Z,98632.88
2022-08-22T22:55:25.277Z,98634.69
2022-08-22T22:57:59.254Z,98644.31
2022-08-22T23:00:30.682Z,98629.59
2022-08-22T23:03:02.296Z,98641.69
2022-08-22T23:05:30.785Z,98642.69
2022-08-22T23:07:58.218Z,98637.44
2022-08-22T23:10:26.586Z,98634.69
2022-08-22T23:12:54.587Z,98634.09
2022-08-22T23:15:21.860Z,98636.72
2022-08-22T23:17:49.435Z,98625.41
2022-08-22T23:20:16.949Z,98617.81
2022-08-22T23:22:45.417Z,98636.72
2022-08-22T23:25:12.928Z,98645.97
2022-08-22T23:27:40.342Z,98634.38
2022-08-22T23:30:10.965Z,98634.38
2022-08-22T23:32:39.115Z,98637.09
2022-08-22T23:35:06.996Z,98642.97
2022-08-22T23:37:34.303Z,98644.84
2022-08-22T23:40:01.844Z,98633.97
2022-08-22T23:42:30.383Z,98655.94
2022-08-22T23:45:02.499Z,98644.16
2022-08-22T23:47:31.794Z,98645.94
2022-08-22T23:50:05.885Z,98634.16
2022-08-22T23:52:35.014Z,98636.75
2022-08-22T23:55:14.099Z,98641.47
2022-08-22T23:57:51.009Z,98646.88
